Time;durP1;ratioP1;P1;durP2;ratioP2;P2;SDS_P1;SDS_P2;PMS_P1;PMS_P2;Temp;Humidity;BMP_temperature;BMP_pressure;BME280_temperature;BME280_humidity;BME280_pressure;Samples;Min_cycle;Max_cycle;Signal;HPM_P1;HPM_P2
2020/12/30 00:00:08;;;;;;;81.57;43.15;;;17.80;50.90;;;;;;5117717;28;20023;-58
2020/12/30 00:02:33;;;;;;;68.90;41.00;;;17.70;50.90;;;;;;5117967;28;20039;-58
2020/12/30 00:05:01;;;;;;;82.05;44.88;;;17.60;51.10;;;;;;5117881;28;20024;-57
2020/12/30 00:07:26;;;;;;;77.05;43.55;;;17.60;51.20;;;;;;5117944;28;20024;-58
2020/12/30 00:09:52;;;;;;;77.18;40.53;;;17.50;51.40;;;;;;5117706;28;20031;-58
2020/12/30 00:12:18;;;;;;;68.50;40.20;;;17.50;51.50;;;;;;5117473;28;20053;-58
2020/12/30 00:14:44;;;;;;;72.45;41.13;;;17.40;51.60;;;;;;5117417;28;20052;-58
2020/12/30 00:17:10;;;;;;;66.70;38.38;;;17.40;51.80;;;;;;5117587;28;20058;-57
2020/12/30 00:19:36;;;;;;;73.63;38.22;;;17.40;51.90;;;;;;5117530;28;20100;-58
2020/12/30 00:22:05;;;;;;;71.35;40.85;;;17.30;52.00;;;;;;5117333;28;20494;-57
2020/12/30 00:24:31;;;;;;;67.00;37.45;;;17.30;52.10;;;;;;5117145;28;20036;-58
2020/12/30 00:26:56;;;;;;;65.88;38.83;;;17.30;52.20;;;;;;5117412;28;20461;-58
2020/12/30 00:29:22;;;;;;;65.18;39.22;;;17.20;52.10;;;;;;5117133;28;20031;-58
2020/12/30 00:31:47;;;;;;;72.32;38.75;;;17.30;52.00;;;;;;5116259;28;20457;-57
2020/12/30 00:34:13;;;;;;;68.65;37.75;;;17.30;51.90;;;;;;5117227;28;20111;-58
2020/12/30 00:36:39;;;;;;;63.95;36.40;;;17.30;51.90;;;;;;5117119;28;20019;-58
2020/12/30 00:39:06;;;;;;;62.60;35.15;;;17.30;51.90;;;;;;5116982;28;20028;-58
2020/12/30 00:41:33;;;;;;;61.80;33.30;;;17.30;52.00;;;;;;5116869;28;20110;-58
2020/12/30 00:43:59;;;;;;;62.35;35.38;;;17.30;52.00;;;;;;5116873;28;20032;-58
2020/12/30 00:46:25;;;;;;;54.00;32.88;;;17.30;52.10;;;;;;5116769;28;20023;-58
2020/12/30 00:48:51;;;;;;;61.38;34.38;;;17.20;52.10;;;;;;5117156;28;20457;-57
2020/12/30 00:51:17;;;;;;;54.80;31.65;;;17.20;52.70;;;;;;5115603;28;20059;-58
2020/12/30 00:53:43;;;;;;;55.13;32.03;;;17.20;52.30;;;;;;5116854;28;20015;-58
2020/12/30 00:56:09;;;;;;;53.88;32.65;;;17.20;52.40;;;;;;5116661;28;20051;-59
2020/12/30 00:58:39;;;;;;;52.17;29.70;;;17.30;52.20;;;;;;5117248;28;20027;-58
2020/12/30 01:01:07;;;;;;;55.33;32.88;;;17.40;52.10;;;;;;5116525;28;20119;-58
2020/12/30 01:03:33;;;;;;;53.38;30.75;;;17.30;52.20;;;;;;5116617;28;20042;-58
2020/12/30 01:06:00;;;;;;;54.10;31.13;;;17.30;52.20;;;;;;5116555;28;20039;-57
2020/12/30 01:08:26;;;;;;;57.38;31.05;;;17.30;52.30;;;;;;5116507;28;20047;-58
2020/12/30 01:10:51;;;;;;;55.38;30.65;;;17.30;52.20;;;;;;5116616;28;20038;-57
2020/12/30 01:13:17;;;;;;;51.15;30.17;;;17.20;52.30;;;;;;5116368;28;20019;-57
2020/12/30 01:15:43;;;;;;;49.53;28.77;;;17.10;52.40;;;;;;5116565;28;20181;-58
2020/12/30 01:18:08;;;;;;;49.08;29.58;;;17.10;52.50;;;;;;5116567;28;20024;-58
2020/12/30 01:20:34;;;;;;;56.22;30.27;;;17.00;52.60;;;;;;5116286;28;20035;-58
2020/12/30 01:23:00;;;;;;;50.80;29.48;;;17.00;52.80;;;;;;5116141;28;20026;-57
2020/12/30 01:25:26;;;;;;;54.10;28.80;;;16.90;53.50;;;;;;5116172;28;20031;-58
2020/12/30 01:27:52;;;;;;;48.95;27.88;;;16.90;53.00;;;;;;5116056;28;20491;-58
2020/12/30 01:30:18;;;;;;;46.03;26.58;;;16.80;53.00;;;;;;5116246;28;20023;-58
2020/12/30 01:32:44;;;;;;;46.78;26.60;;;16.80;53.00;;;;;;5116206;28;20027;-57
2020/12/30 01:35:10;;;;;;;50.42;27.40;;;16.80;53.10;;;;;;5116089;28;20027;-57
2020/12/30 01:37:35;;;;;;;41.35;25.10;;;16.80;53.20;;;;;;5115866;28;20513;-57
2020/12/30 01:40:01;;;;;;;48.28;27.52;;;16.80;53.20;;;;;;5115775;28;20051;-57
2020/12/30 01:42:27;;;;;;;49.63;27.48;;;16.80;53.30;;;;;;5115731;28;20048;-57
2020/12/30 01:44:53;;;;;;;41.50;25.08;;;16.80;53.40;;;;;;5115840;28;20032;-57
2020/12/30 01:47:19;;;;;;;43.80;25.77;;;16.80;53.50;;;;;;5115703;28;20020;-57
2020/12/30 01:49:46;;;;;;;44.65;24.00;;;16.90;53.40;;;;;;5115727;28;20524;-57
2020/12/30 01:52:13;;;;;;;41.03;24.67;;;16.90;53.20;;;;;;5115632;28;20377;-57
2020/12/30 01:54:38;;;;;;;40.97;24.98;;;17.10;53.10;;;;;;5116020;27;20034;-57
2020/12/30 01:57:04;;;;;;;43.38;24.92;;;17.10;52.90;;;;;;5115430;28;20023;-57
2020/12/30 01:59:29;;;;;;;38.60;23.02;;;17.20;52.70;;;;;;5115578;28;20027;-58
2020/12/30 02:02:04;;;;;;;36.90;22.25;;;17.30;52.50;;;;;;5115439;28;20058;-57
2020/12/30 02:04:44;;;;;;;41.05;22.70;;;17.30;52.40;;;;;;5115303;28;20035;-57
2020/12/30 02:07:10;;;;;;;39.55;22.20;;;17.40;52.40;;;;;;5115513;28;20483;-57
2020/12/30 02:09:38;;;;;;;36.65;20.85;;;17.50;52.40;;;;;;5115576;28;20043;-58
2020/12/30 02:12:04;;;;;;;39.28;22.38;;;17.60;52.30;;;;;;5115181;28;20028;-57
2020/12/30 02:14:30;;;;;;;38.90;22.95;;;17.70;52.10;;;;;;5115537;28;20055;-58
2020/12/30 02:16:56;;;;;;;35.10;21.52;;;17.80;52.00;;;;;;5115112;28;20050;-59
2020/12/30 02:19:22;;;;;;;34.83;19.67;;;17.70;51.90;;;;;;5114986;28;20098;-58
2020/12/30 02:21:49;;;;;;;35.45;21.45;;;17.60;52.00;;;;;;5115270;28;20458;-57
2020/12/30 02:24:27;;;;;;;36.55;22.33;;;17.60;52.70;;;;;;5114902;28;20457;-58
2020/12/30 02:26:54;;;;;;;39.67;19.73;;;17.50;52.20;;;;;;5114937;28;20027;-57
2020/12/30 02:29:20;;;;;;;38.80;20.83;;;17.50;52.30;;;;;;5114857;28;20030;-58
2020/12/30 02:31:45;;;;;;;38.53;20.33;;;17.50;52.30;;;;;;5114859;28;20027;-58
2020/12/30 02:34:11;;;;;;;30.95;19.73;;;17.50;52.40;;;;;;5114732;28;20027;-58
2020/12/30 02:36:37;;;;;;;33.53;18.90;;;17.40;52.50;;;;;;5115022;28;20103;-58
2020/12/30 02:39:03;;;;;;;32.70;20.00;;;17.40;52.60;;;;;;5114778;28;20031;-58
2020/12/30 02:41:28;;;;;;;35.60;19.30;;;17.30;52.70;;;;;;5114550;28;20525;-58
2020/12/30 02:43:54;;;;;;;31.85;18.90;;;17.30;52.80;;;;;;5114419;28;20114;-57
2020/12/30 02:46:20;;;;;;;34.55;19.10;;;17.20;52.70;;;;;;5114622;28;20103;-58
2020/12/30 02:48:46;;;;;;;31.77;19.08;;;17.20;52.80;;;;;;5114454;28;20055;-58
2020/12/30 02:51:11;;;;;;;30.83;18.95;;;17.30;52.70;;;;;;5114698;28;20076;-58
2020/12/30 02:53:37;;;;;;;27.75;16.98;;;17.30;52.50;;;;;;5114685;28;20055;-58
2020/12/30 02:56:03;;;;;;;30.63;17.23;;;17.30;52.40;;;;;;5114372;28;20028;-57
2020/12/30 02:58:28;;;;;;;33.67;18.63;;;17.30;52.40;;;;;;5114441;28;20080;-57
2020/12/30 03:00:54;;;;;;;29.17;16.77;;;17.30;52.50;;;;;;5114258;28;20032;-58
2020/12/30 03:03:20;;;;;;;30.45;16.83;;;17.30;52.60;;;;;;5114704;28;20028;-58
2020/12/30 03:05:46;;;;;;;29.58;16.30;;;17.30;52.60;;;;;;5114327;28;20026;-57
2020/12/30 03:08:11;;;;;;;33.60;17.40;;;17.20;52.50;;;;;;5114427;28;20039;-58
2020/12/30 03:10:37;;;;;;;27.20;16.83;;;17.20;52.60;;;;;;5114390;28;20447;-57
2020/12/30 03:13:02;;;;;;;30.42;16.00;;;17.20;52.70;;;;;;5114069;28;20527;-57
2020/12/30 03:15:28;;;;;;;28.52;14.93;;;17.30;52.50;;;;;;5113320;28;20035;-58
2020/12/30 03:17:54;;;;;;;26.83;15.25;;;17.30;52.40;;;;;;5113867;28;20028;-57
2020/12/30 03:20:19;;;;;;;26.77;14.93;;;17.30;52.40;;;;;;5114240;28;20028;-58
2020/12/30 03:22:45;;;;;;;24.52;14.10;;;17.30;52.30;;;;;;5114145;28;20076;-58
2020/12/30 03:25:10;;;;;;;24.05;14.48;;;17.30;52.40;;;;;;5113931;28;20031;-59
2020/12/30 03:27:36;;;;;;;24.23;14.98;;;17.30;52.40;;;;;;5113943;28;20358;-58
2020/12/30 03:30:03;;;;;;;28.13;15.85;;;17.00;51.80;;;;;;5114234;28;20036;-58
2020/12/30 03:32:29;;;;;;;25.55;14.52;;;17.20;52.60;;;;;;5114202;28;20172;-58
2020/12/30 03:34:54;;;;;;;24.17;14.90;;;17.10;52.80;;;;;;5113810;28;20052;-58
2020/12/30 03:37:20;;;;;;;22.98;14.50;;;17.00;52.90;;;;;;5114119;28;20520;-58
2020/12/30 03:39:45;;;;;;;22.92;13.45;;;17.00;53.00;;;;;;5114084;28;20027;-57
2020/12/30 03:42:11;;;;;;;22.52;13.35;;;16.90;53.10;;;;;;5113879;28;20042;-58
2020/12/30 03:44:36;;;;;;;25.02;15.05;;;17.00;53.20;;;;;;5113803;28;20024;-58
2020/12/30 03:47:06;;;;;;;22.15;12.77;;;16.90;53.20;;;;;;5113686;28;20032;-58
2020/12/30 03:49:32;;;;;;;21.88;12.60;;;16.90;53.30;;;;;;5113870;28;20023;-57
2020/12/30 03:51:59;;;;;;;21.27;12.98;;;16.80;53.30;;;;;;5114218;28;20024;-58
2020/12/30 03:54:26;;;;;;;22.92;13.18;;;16.80;53.50;;;;;;5112617;28;20044;-58
2020/12/30 03:56:52;;;;;;;20.50;11.15;;;16.80;53.60;;;;;;5113695;28;20031;-57
2020/12/30 03:59:18;;;;;;;26.50;12.75;;;16.80;53.60;;;;;;5113795;28;20077;-58
2020/12/30 04:01:44;;;;;;;19.10;12.68;;;16.90;53.50;;;;;;5113478;28;20032;-58
2020/12/30 04:04:13;;;;;;;20.55;12.43;;;16.90;53.20;;;;;;5113601;28;20035;-58
2020/12/30 04:06:39;;;;;;;21.13;12.13;;;17.00;53.10;;;;;;5113733;28;20024;-58
2020/12/30 04:09:05;;;;;;;19.75;10.93;;;17.10;53.00;;;;;;5113449;28;20051;-58
2020/12/30 04:11:31;;;;;;;20.17;11.45;;;17.20;52.70;;;;;;5113481;28;20028;-58
2020/12/30 04:13:56;;;;;;;20.38;10.35;;;17.30;52.60;;;;;;5113391;28;20048;-58
2020/12/30 04:16:23;;;;;;;20.10;11.25;;;17.40;51.70;;;;;;5113651;28;20478;-58
2020/12/30 04:18:49;;;;;;;20.50;10.57;;;17.40;52.20;;;;;;5093355;28;20370;-57
2020/12/30 04:21:25;;;;;;;20.80;11.85;;;17.50;52.00;;;;;;5093077;28;20050;-58
2020/12/30 04:23:52;;;;;;;19.52;10.80;;;17.50;52.10;;;;;;5093166;28;20119;-58
2020/12/30 04:26:18;;;;;;;20.60;10.73;;;17.50;52.20;;;;;;5093754;28;20032;-58
2020/12/30 04:28:44;;;;;;;18.17;10.23;;;17.60;52.20;;;;;;5097325;28;20098;-58
2020/12/30 04:31:11;;;;;;;17.48;9.65;;;17.60;52.10;;;;;;5097030;28;20103;-58
2020/12/30 04:33:37;;;;;;;18.10;10.52;;;17.70;51.90;;;;;;5096919;28;20074;-58
2020/12/30 04:36:04;;;;;;;15.75;10.20;;;17.70;51.90;;;;;;5096669;28;20031;-58
2020/12/30 04:38:31;;;;;;;19.08;9.45;;;17.70;51.80;;;;;;5096661;28;20035;-58
2020/12/30 04:40:59;;;;;;;13.85;9.00;;;17.60;51.90;;;;;;5096583;28;20063;-58
2020/12/30 04:43:27;;;;;;;16.73;10.13;;;17.60;51.80;;;;;;5097158;28;20021;-58
2020/12/30 04:45:53;;;;;;;15.07;8.85;;;17.60;51.50;;;;;;5096527;28;20127;-58
2020/12/30 04:48:20;;;;;;;17.88;9.88;;;17.70;51.50;;;;;;5096740;28;20454;-58
2020/12/30 04:50:46;;;;;;;15.15;9.63;;;17.70;51.50;;;;;;5096593;28;20028;-58
2020/12/30 04:53:13;;;;;;;17.85;8.90;;;17.60;51.50;;;;;;5096686;28;20097;-58
2020/12/30 04:55:41;;;;;;;14.65;8.48;;;17.60;51.60;;;;;;5096319;28;20076;-58
2020/12/30 04:58:08;;;;;;;12.80;8.18;;;17.50;51.60;;;;;;5096548;28;20032;-58
2020/12/30 05:00:39;;;;;;;16.70;8.30;;;17.50;51.70;;;;;;5096283;28;20034;-58
2020/12/30 05:03:10;;;;;;;18.75;8.73;;;17.50;51.70;;;;;;5096383;28;20024;-58
2020/12/30 05:05:41;;;;;;;14.52;7.65;;;17.50;51.80;;;;;;5096495;28;20358;-58
2020/12/30 05:08:07;;;;;;;;;;;17.40;51.90;;;;;;5096372;28;20051;-58
2020/12/30 05:10:36;;;;;;;15.52;8.35;;;17.40;52.10;;;;;;5096399;28;19904;-58
2020/12/30 05:13:02;;;;;;;11.98;7.32;;;17.40;52.10;;;;;;5095792;28;20025;-57
2020/12/30 05:15:27;;;;;;;13.73;8.48;;;17.40;52.10;;;;;;5096178;28;20027;-58
2020/12/30 05:17:53;;;;;;;15.73;8.27;;;17.50;52.00;;;;;;5108555;28;20066;-57
2020/12/30 05:20:21;;;;;;;13.65;7.72;;;17.50;51.80;;;;;;5116238;28;20038;-58
2020/12/30 05:22:47;;;;;;;13.35;7.82;;;17.60;51.70;;;;;;5116134;28;20036;-58
2020/12/30 05:25:13;;;;;;;14.75;8.15;;;17.70;51.60;;;;;;5116150;28;20424;-58
2020/12/30 05:27:38;;;;;;;12.70;7.10;;;17.70;51.40;;;;;;5116140;28;20372;-57
2020/12/30 05:30:04;;;;;;;11.52;6.82;;;17.80;51.40;;;;;;5116115;28;20027;-58
2020/12/30 05:32:35;;;;;;;11.52;7.20;;;17.80;51.50;;;;;;5116111;28;20164;-58
2020/12/30 05:35:01;;;;;;;;;;;17.80;51.50;;;;;;5116419;28;20039;-58
2020/12/30 05:37:32;;;;;;;12.05;6.68;;;17.90;51.40;;;;;;5115869;28;19903;-58
2020/12/30 05:39:58;;;;;;;11.20;6.82;;;17.90;51.30;;;;;;5115727;28;20031;-58
2020/12/30 05:42:24;;;;;;;12.40;6.95;;;18.00;51.20;;;;;;5115832;28;20036;-59
2020/12/30 05:44:51;;;;;;;13.52;6.78;;;19.40;50.70;;;;;;5115912;28;20377;-58
2020/12/30 05:47:21;;;;;;;13.80;7.43;;;18.20;50.70;;;;;;5115662;28;20023;-58
2020/12/30 05:49:49;;;;;;;14.60;7.53;;;18.20;50.40;;;;;;5115532;28;20031;-58
2020/12/30 05:52:28;;;;;;;14.15;6.10;;;18.30;50.20;;;;;;5115546;28;20040;-57
2020/12/30 05:54:59;;;;;;;11.35;7.25;;;18.40;50.10;;;;;;5115753;28;20059;-57
2020/12/30 05:57:27;;;;;;;13.05;7.30;;;18.40;50.10;;;;;;5115776;28;20081;-58
2020/12/30 06:00:03;;;;;;;10.82;6.00;;;18.50;50.00;;;;;;5115399;28;20077;-58
2020/12/30 06:02:30;;;;;;;9.77;5.90;;;18.50;49.90;;;;;;5115756;28;20036;-58
2020/12/30 06:05:13;;;;;;;11.32;6.53;;;18.60;49.90;;;;;;5115690;28;20411;-58
2020/12/30 06:07:42;;;;;;;11.77;6.07;;;18.60;49.80;;;;;;5115355;28;20026;-58
2020/12/30 06:10:10;;;;;;;13.80;7.30;;;18.70;49.80;;;;;;5115462;28;20046;-58
2020/12/30 06:13:01;;;;;;;10.43;6.10;;;18.70;49.70;;;;;;5115151;28;20434;-58
2020/12/30 06:15:27;;;;;;;12.27;6.60;;;18.70;49.70;;;;;;5104762;28;20123;-58
2020/12/30 06:17:57;;;;;;;11.50;6.38;;;18.70;49.70;;;;;;5115220;28;20377;-58
2020/12/30 06:20:48;;;;;;;10.48;6.38;;;18.70;49.80;;;;;;5115358;28;20080;-58
2020/12/30 06:23:16;;;;;;;10.32;5.35;;;18.70;49.90;;;;;;5115454;28;20048;-59
2020/12/30 06:25:43;;;;;;;10.57;6.78;;;18.60;49.90;;;;;;5115063;28;20020;-58
2020/12/30 06:28:14;;;;;;;10.07;5.95;;;18.60;50.10;;;;;;5114093;28;20080;-58
2020/12/30 06:30:42;;;;;;;10.68;5.80;;;18.50;50.20;;;;;;5115211;28;20107;-58
2020/12/30 06:33:08;;;;;;;11.07;6.00;;;18.50;50.20;;;;;;5115049;28;20020;-58
2020/12/30 06:35:36;;;;;;;10.32;5.97;;;18.50;50.30;;;;;;5115165;28;20593;-58
2020/12/30 06:38:26;;;;;;;8.93;5.38;;;18.40;50.40;;;;;;5114935;28;20027;-58
2020/12/30 06:40:54;;;;;;;10.45;5.70;;;18.30;50.80;;;;;;5114717;28;20038;-58
2020/12/30 06:43:38;;;;;;;10.15;5.20;;;18.30;51.00;;;;;;5114683;28;20031;-58
2020/12/30 06:46:03;;;;;;;13.07;6.07;;;18.20;51.10;;;;;;5114368;28;20023;-58
2020/12/30 06:48:29;;;;;;;10.98;5.50;;;18.20;51.20;;;;;;5114907;28;20042;-58
2020/12/30 06:51:07;;;;;;;10.45;5.45;;;18.20;51.00;;;;;;5114479;28;20139;-58
2020/12/30 06:53:33;;;;;;;12.23;5.68;;;18.30;50.90;;;;;;5114591;28;20031;-58
2020/12/30 06:56:01;;;;;;;9.30;5.20;;;18.30;50.70;;;;;;5114430;28;20431;-59
2020/12/30 06:58:45;;;;;;;10.40;5.35;;;18.30;50.40;;;;;;5114817;28;20370;-58
2020/12/30 07:01:12;;;;;;;9.48;5.05;;;18.30;50.40;;;;;;5114199;28;20046;-58
2020/12/30 07:03:39;;;;;;;8.57;5.18;;;18.20;50.40;;;;;;5113225;28;20039;-58
2020/12/30 07:06:26;;;;;;;8.32;5.28;;;18.20;50.60;;;;;;5114267;28;20047;-58
2020/12/30 07:08:54;;;;;;;9.68;4.57;;;18.10;50.80;;;;;;5114505;28;20043;-58
2020/12/30 07:11:40;;;;;;;9.48;5.13;;;18.10;51.00;;;;;;5114290;28;20039;-58
2020/12/30 07:14:12;;;;;;;9.82;5.28;;;18.10;50.90;;;;;;5114257;28;20019;-58
2020/12/30 07:16:39;;;;;;;9.77;5.05;;;18.20;50.90;;;;;;5114091;28;20057;-58
2020/12/30 07:19:10;;;;;;;8.68;4.20;;;18.20;50.70;;;;;;5113863;28;20473;-58
2020/12/30 07:21:48;;;;;;;;;;;18.20;50.80;;;;;;5114339;28;20040;-58
2020/12/30 07:24:22;;;;;;;7.30;4.32;;;18.30;50.80;;;;;;5114363;28;20364;-58
2020/12/30 07:26:59;;;;;;;10.98;4.55;;;18.30;50.70;;;;;;5114089;28;20030;-58
2020/12/30 07:29:25;;;;;;;9.93;5.07;;;18.40;50.50;;;;;;5113886;28;20028;-58
2020/12/30 07:31:53;;;;;;;8.63;4.50;;;18.40;50.40;;;;;;5113822;28;20430;-58
2020/12/30 07:34:24;;;;;;;8.50;4.97;;;18.50;50.40;;;;;;5113844;28;20084;-58
2020/12/30 07:36:51;;;;;;;9.55;4.65;;;18.50;50.30;;;;;;5114153;28;20392;-58
2020/12/30 07:39:23;;;;;;;10.32;4.60;;;18.50;50.30;;;;;;5113881;28;20023;-58
2020/12/30 07:41:49;;;;;;;8.10;4.65;;;18.50;50.40;;;;;;5113840;28;20059;-58
2020/12/30 07:44:15;;;;;;;9.13;4.55;;;18.40;50.50;;;;;;5113847;28;20016;-58
2020/12/30 07:46:41;;;;;;;8.02;4.63;;;18.30;50.70;;;;;;5113957;28;20540;-58
2020/12/30 07:49:12;;;;;;;9.90;5.35;;;18.30;51.00;;;;;;5113802;28;20016;-58
2020/12/30 07:51:48;;;;;;;;;;;18.30;51.00;;;;;;5114321;28;20027;-58
2020/12/30 07:54:17;;;;;;;7.85;4.43;;;18.20;51.00;;;;;;5113561;28;19957;-59
2020/12/30 07:56:43;;;;;;;7.83;4.40;;;18.30;51.00;;;;;;5114107;28;20450;-58
2020/12/30 07:59:10;;;;;;;6.47;3.85;;;18.30;51.10;;;;;;5114260;28;20697;-58
2020/12/30 08:01:36;;;;;;;9.27;4.25;;;18.20;50.80;;;;;;5114756;28;20039;-58
2020/12/30 08:04:08;;;;;;;8.23;4.10;;;18.30;50.80;;;;;;5117753;28;20080;-58
2020/12/30 08:06:47;;;;;;;8.45;3.88;;;18.30;50.70;;;;;;5117790;28;20028;-58
2020/12/30 08:09:14;;;;;;;6.43;4.05;;;18.30;50.70;;;;;;5117897;28;20058;-58
2020/12/30 08:11:50;;;;;;;7.50;4.38;;;18.30;50.70;;;;;;5117835;28;20034;-58
2020/12/30 08:14:17;;;;;;;6.97;3.97;;;18.30;50.70;;;;;;5118038;28;20027;-58
2020/12/30 08:17:05;;;;;;;8.02;4.07;;;18.20;50.70;;;;;;5117485;28;20105;-58
2020/12/30 08:19:39;;;;;;;6.85;4.03;;;18.20;50.80;;;;;;5117586;28;20761;-58
2020/12/30 08:22:07;;;;;;;10.38;4.75;;;18.10;50.80;;;;;;5117584;28;20076;-58
2020/12/30 08:24:35;;;;;;;8.02;4.63;;;18.10;51.10;;;;;;5117503;28;20474;-58
2020/12/30 08:27:01;;;;;;;7.47;4.32;;;18.00;51.20;;;;;;5117214;28;20116;-58
2020/12/30 08:29:40;;;;;;;7.40;4.38;;;18.10;51.20;;;;;;5117390;28;20117;-58
2020/12/30 08:32:31;;;;;;;7.85;4.25;;;18.10;51.20;;;;;;5117332;28;20027;-58
2020/12/30 08:35:17;;;;;;;7.60;4.20;;;18.10;51.20;;;;;;5117376;28;20028;-58
2020/12/30 08:37:45;;;;;;;7.45;4.28;;;18.20;51.00;;;;;;5116457;28;20038;-58
2020/12/30 08:40:29;;;;;;;7.22;4.20;;;18.20;50.90;;;;;;5116998;28;20122;-58
2020/12/30 08:43:05;;;;;;;7.85;3.75;;;18.30;50.80;;;;;;5117215;28;20023;-58
2020/12/30 08:45:33;;;;;;;6.50;3.88;;;18.40;50.70;;;;;;5116970;28;20093;-58
2020/12/30 08:48:13;;;;;;;8.23;4.35;;;18.40;50.70;;;;;;5117221;28;20106;-58
2020/12/30 08:50:39;;;;;;;6.70;3.65;;;18.50;50.60;;;;;;5116973;28;20027;-53
2020/12/30 08:53:05;;;;;;;7.85;4.20;;;18.60;51.10;;;;;;5116684;28;20024;-57
2020/12/30 08:55:31;;;;;;;7.63;4.05;;;18.70;51.30;;;;;;5116916;28;20393;-58
2020/12/30 08:57:58;;;;;;;12.55;3.90;;;18.70;52.80;;;;;;5116405;28;20108;-58
2020/12/30 09:00:26;;;;;;;8.45;4.40;;;18.80;52.00;;;;;;5116544;28;20071;-58
2020/12/30 09:02:53;;;;;;;15.43;5.65;;;18.80;52.30;;;;;;5116798;28;20043;-59
2020/12/30 09:05:29;;;;;;;18.92;8.32;;;18.80;51.30;;;;;;5117091;28;20024;-61
2020/12/30 09:08:09;;;;;;;21.23;9.43;;;18.50;45.70;;;;;;5116618;28;20076;-57
2020/12/30 09:10:34;;;;;;;15.70;9.00;;;18.30;44.90;;;;;;5116923;28;20034;-51
2020/12/30 09:13:18;;;;;;;31.00;16.80;;;18.30;44.70;;;;;;5114661;28;20482;-57
2020/12/30 09:15:46;;;;;;;58.05;30.67;;;18.20;43.60;;;;;;5117096;28;20364;-54
2020/12/30 09:18:13;;;;;;;38.78;23.73;;;18.10;42.90;;;;;;5116760;28;20019;-56
2020/12/30 09:20:39;;;;;;;86.82;42.40;;;18.20;42.30;;;;;;5116253;28;20084;-57
2020/12/30 09:23:06;;;;;;;91.95;47.38;;;18.10;41.60;;;;;;5115242;27;20023;-57
2020/12/30 09:25:33;;;;;;;137.73;70.40;;;18.20;40.60;;;;;;5115902;28;20469;-56
2020/12/30 09:27:59;;;;;;;141.02;71.70;;;18.20;40.50;;;;;;5116093;28;20031;-59
2020/12/30 09:30:27;;;;;;;149.35;79.00;;;18.20;40.00;;;;;;5116266;28;20031;-52
2020/12/30 09:32:55;;;;;;;112.38;65.68;;;18.30;39.50;;;;;;5115177;28;20038;-54
2020/12/30 09:35:28;;;;;;;93.75;48.28;;;18.30;38.90;;;;;;5116256;28;20434;-54
2020/12/30 09:37:57;;;;;;;68.85;34.03;;;18.20;38.40;;;;;;5116101;28;20038;-57
2020/12/30 09:40:24;;;;;;;51.28;24.10;;;18.20;38.00;;;;;;5116102;28;20377;-53
2020/12/30 09:42:50;;;;;;;54.00;21.65;;;18.20;37.70;;;;;;5115811;28;20087;-55
2020/12/30 09:45:19;;;;;;;42.78;20.95;;;18.20;37.60;;;;;;5115593;28;20403;-56
2020/12/30 09:47:45;;;;;;;44.50;17.85;;;18.30;38.30;;;;;;5115347;28;20020;-55
2020/12/30 09:50:15;;;;;;;41.35;19.38;;;18.40;38.90;;;;;;5115911;28;20032;-55
2020/12/30 09:52:45;;;;;;;38.65;17.92;;;18.50;39.40;;;;;;5115630;28;20106;-57
2020/12/30 09:55:12;;;;;;;43.83;19.40;;;18.60;40.00;;;;;;5113366;28;20412;-58
2020/12/30 09:57:38;;;;;;;40.33;17.50;;;18.60;40.40;;;;;;5113584;28;20032;-55
2020/12/30 10:00:06;;;;;;;38.80;18.08;;;18.70;41.00;;;;;;5113635;28;20032;-57
2020/12/30 10:02:31;;;;;;;38.03;16.30;;;18.70;41.70;;;;;;5113178;28;20369;-57
2020/12/30 10:04:57;;;;;;;30.35;15.55;;;18.70;42.10;;;;;;5113304;28;20028;-57
2020/12/30 10:07:23;;;;;;;44.42;14.95;;;18.70;42.60;;;;;;5111839;28;20024;-57
2020/12/30 10:09:48;;;;;;;39.72;16.38;;;18.70;42.70;;;;;;5114998;28;20038;-55
2020/12/30 10:12:14;;;;;;;29.25;15.63;;;18.70;42.90;;;;;;5115852;28;20036;-56
2020/12/30 10:14:40;;;;;;;36.38;16.35;;;18.80;43.00;;;;;;5115466;28;20027;-55
2020/12/30 10:17:09;;;;;;;29.50;14.82;;;18.80;43.00;;;;;;5115635;28;20070;-56
2020/12/30 10:19:35;;;;;;;28.73;14.27;;;18.80;43.30;;;;;;5115395;28;20028;-55
2020/12/30 10:22:12;;;;;;;34.90;15.32;;;18.80;43.50;;;;;;5115171;28;20035;-56
2020/12/30 10:24:44;;;;;;;29.52;14.13;;;18.70;43.60;;;;;;5114850;28;20024;-56
2020/12/30 10:27:11;;;;;;;33.25;15.52;;;18.70;43.80;;;;;;5115184;28;20047;-55
2020/12/30 10:29:37;;;;;;;25.58;14.70;;;18.70;44.00;;;;;;5115278;28;20031;-54
2020/12/30 10:32:02;;;;;;;25.58;13.68;;;18.60;44.20;;;;;;5115281;27;20024;-55
2020/12/30 10:34:28;;;;;;;27.83;13.98;;;18.70;44.40;;;;;;5115028;28;20024;-56
2020/12/30 10:36:53;;;;;;;30.25;13.88;;;18.60;44.60;;;;;;5115428;28;20031;-55
2020/12/30 10:39:19;;;;;;;28.27;12.85;;;18.60;44.80;;;;;;5114985;28;20381;-56
2020/12/30 10:41:44;;;;;;;28.67;14.48;;;18.60;44.90;;;;;;5115152;28;20035;-55
2020/12/30 10:44:11;;;;;;;25.20;13.85;;;18.60;44.90;;;;;;5114887;28;20480;-55
2020/12/30 10:46:36;;;;;;;27.02;14.13;;;18.70;44.90;;;;;;5114494;28;20038;-52
2020/12/30 10:49:02;;;;;;;22.70;11.52;;;18.70;44.90;;;;;;5114686;28;20024;-50
2020/12/30 10:51:28;;;;;;;27.33;11.70;;;18.60;45.20;;;;;;5114711;28;20457;-49
2020/12/30 10:53:53;;;;;;;24.33;10.73;;;18.50;44.10;;;;;;5114692;28;20080;-51
2020/12/30 10:56:19;;;;;;;19.27;9.48;;;18.50;43.70;;;;;;5114551;28;20088;-54
2020/12/30 10:58:44;;;;;;;23.42;10.32;;;18.30;42.30;;;;;;5114547;28;20428;-54
2020/12/30 11:01:12;;;;;;;13.88;9.48;;;18.20;41.20;;;;;;5114279;28;20036;-54
2020/12/30 11:03:38;;;;;;;11.30;6.22;;;18.10;39.10;;;;;;5114267;27;20453;-52
2020/12/30 11:06:05;;;;;;;7.75;4.38;;;18.10;37.10;;;;;;5114845;28;20051;-55
2020/12/30 11:08:31;;;;;;;15.10;5.90;;;18.10;36.90;;;;;;5114353;28;20496;-50
2020/12/30 11:11:02;;;;;;;13.02;6.97;;;18.10;37.10;;;;;;5114189;28;20438;-57
2020/12/30 11:13:27;;;;;;;12.23;7.43;;;18.40;36.80;;;;;;5114369;28;20499;-51
2020/12/30 11:15:53;;;;;;;11.40;7.00;;;18.50;36.40;;;;;;5114278;28;20047;-49
2020/12/30 11:18:20;;;;;;;12.07;5.22;;;18.40;36.80;;;;;;5114496;28;20085;-53
2020/12/30 11:20:45;;;;;;;15.45;3.97;;;18.10;36.10;;;;;;5114612;28;20031;-51
2020/12/30 11:23:11;;;;;;;5.38;2.97;;;18.00;36.00;;;;;;5114250;28;20035;-54
2020/12/30 11:25:37;;;;;;;11.43;3.67;;;17.90;36.20;;;;;;5114345;28;20024;-51
2020/12/30 11:28:04;;;;;;;13.13;3.40;;;17.90;36.60;;;;;;5114412;28;20026;-52
2020/12/30 11:30:30;;;;;;;5.07;2.60;;;17.90;36.50;;;;;;5114315;28;20049;-51
2020/12/30 11:32:56;;;;;;;5.85;2.30;;;17.90;36.00;;;;;;5114648;28;20031;-53
2020/12/30 11:35:22;;;;;;;8.23;2.83;;;17.90;35.50;;;;;;5113852;28;20093;-52
2020/12/30 11:37:48;;;;;;;8.70;2.83;;;18.00;35.50;;;;;;5113525;28;20461;-54
2020/12/30 11:40:13;;;;;;;11.88;2.40;;;17.90;35.30;;;;;;5114050;28;20034;-50
2020/12/30 11:42:40;;;;;;;8.65;1.92;;;17.90;35.50;;;;;;5113941;28;20027;-54
2020/12/30 11:45:07;;;;;;;4.15;2.03;;;17.90;35.10;;;;;;5113786;28;20038;-50
2020/12/30 11:47:33;;;;;;;4.35;1.90;;;17.90;35.50;;;;;;5113966;28;20084;-53
2020/12/30 11:49:59;;;;;;;8.48;2.80;;;18.00;35.70;;;;;;5114199;28;20028;-50
2020/12/30 11:52:24;;;;;;;4.10;2.30;;;18.10;35.60;;;;;;5113785;28;20035;-48
2020/12/30 11:54:50;;;;;;;7.10;2.50;;;18.10;35.10;;;;;;5114047;28;20023;-49
2020/12/30 11:57:16;;;;;;;9.30;2.42;;;18.20;34.90;;;;;;5113921;28;20024;-54
2020/12/30 11:59:41;;;;;;;5.85;2.15;;;18.20;34.90;;;;;;5113849;28;20118;-50
2020/12/30 12:02:07;;;;;;;7.05;1.70;;;18.20;34.70;;;;;;5114072;28;20032;-51
2020/12/30 12:04:33;;;;;;;5.40;1.75;;;18.20;34.80;;;;;;5114138;28;20027;-49
2020/12/30 12:06:59;;;;;;;5.70;1.55;;;18.10;34.90;;;;;;5114088;28;20051;-49
2020/12/30 12:09:26;;;;;;;4.65;1.88;;;18.10;34.80;;;;;;5113614;28;20075;-49
2020/12/30 12:11:52;;;;;;;8.35;1.90;;;18.00;34.90;;;;;;5113963;28;20031;-49
2020/12/30 12:14:18;;;;;;;55.28;4.53;;;18.10;34.50;;;;;;5113763;28;20032;-48
2020/12/30 12:16:54;;;;;;;20.45;2.83;;;18.10;35.00;;;;;;5114211;28;20156;-55
2020/12/30 12:19:20;;;;;;;12.07;2.72;;;18.10;34.90;;;;;;5113701;28;20477;-54
2020/12/30 12:21:46;;;;;;;12.57;3.08;;;18.30;35.00;;;;;;5113749;28;20059;-50
2020/12/30 12:24:13;;;;;;;10.27;2.50;;;18.50;36.00;;;;;;5113482;28;20392;-57
2020/12/30 12:26:39;;;;;;;7.13;2.60;;;18.70;36.00;;;;;;5113821;28;20133;-52
2020/12/30 12:29:35;;;;;;;16.23;3.38;;;18.80;35.80;;;;;;5113305;28;20024;-51
2020/12/30 12:32:20;;;;;;;6.63;2.28;;;19.00;36.10;;;;;;5113964;28;20034;-50
2020/12/30 12:34:48;;;;;;;7.35;3.13;;;19.10;36.70;;;;;;5113984;28;20063;-53
2020/12/30 12:37:16;;;;;;;9.25;2.75;;;19.20;37.30;;;;;;5113155;28;20119;-50
2020/12/30 12:39:43;;;;;;;6.40;2.50;;;19.20;37.60;;;;;;5113216;28;20065;-49